createdAt,value
2018-01-23T00:00:01.065Z,85.74
2018-01-23T00:01:01.088Z,86.1
2018-01-23T00:02:01.131Z,87
2018-01-23T00:03:02.505Z,87.18
2018-01-23T00:04:01.452Z,86.92
2018-01-23T00:05:01.617Z,86.34
2018-01-23T00:06:01.351Z,86.82
2018-01-23T00:07:01.680Z,87.27
2018-01-23T00:08:01.710Z,86.99
2018-01-23T00:09:01.016Z,87.04
2018-01-23T00:10:00.882Z,87.12
2018-01-23T00:11:00.756Z,87.75
2018-01-23T00:12:01.256Z,87.84
2018-01-23T00:13:01.599Z,88.29
2018-01-23T00:14:01.419Z,88.41
2018-01-23T00:15:02.008Z,88.33
2018-01-23T00:16:01.975Z,88.59
2018-01-23T00:17:01.747Z,88.61
2018-01-23T00:18:02.482Z,88.55
2018-01-23T00:19:02.096Z,88.76
2018-01-23T00:20:01.482Z,89.05
2018-01-23T00:21:01.552Z,89.23
2018-01-23T00:22:00.888Z,89.43
2018-01-23T00:23:01.599Z,89.6
2018-01-23T00:24:02.534Z,89.84
2018-01-23T00:25:00.736Z,90.06
2018-01-23T00:26:00.808Z,90.2
2018-01-23T00:27:01.201Z,90.33
2018-01-23T00:28:01.113Z,90.33
2018-01-23T00:29:01.259Z,90.58
2018-01-23T00:30:01.887Z,90.54
2018-01-23T00:31:01.451Z,90.37
2018-01-23T00:32:01.680Z,90.47
2018-01-23T00:33:02.025Z,90.46
2018-01-23T00:34:01.659Z,90.52
2018-01-23T00:35:03.574Z,90.46
2018-01-23T00:36:01.249Z,90.35
2018-01-23T00:37:02.538Z,90.29
2018-01-23T00:38:01.184Z,90.06
2018-01-23T00:39:01.080Z,89.95
2018-01-23T00:40:01.099Z,89.62
2018-01-23T00:41:01.419Z,89.64
2018-01-23T00:42:01.154Z,89.23
2018-01-23T00:43:01.306Z,89.16
2018-01-23T00:44:00.987Z,89.21
2018-01-23T00:45:00.915Z,89.18
2018-01-23T00:46:00.860Z,88.58
2018-01-23T00:47:01.657Z,88.89
2018-01-23T00:48:01.352Z,88.8
2018-01-23T00:49:02.555Z,88.77
2018-01-23T00:50:01.945Z,88.87
2018-01-23T00:51:01.618Z,88.88
2018-01-23T00:52:01.098Z,88.89
2018-01-23T00:53:01.591Z,88.77
2018-01-23T00:54:01.029Z,88.66
2018-01-23T00:55:01.091Z,88.66
2018-01-23T00:56:02.642Z,88.55
2018-01-23T00:57:01.997Z,88.79
2018-01-23T00:58:02.289Z,88.9
2018-01-23T00:59:00.824Z,89.01
2018-01-23T01:00:01.369Z,88.89
2018-01-23T01:01:01.976Z,88.78
2018-01-23T01:02:01.250Z,88.92
2018-01-23T01:03:01.645Z,88.91
2018-01-23T01:04:01.260Z,88.99
2018-01-23T01:05:01.160Z,88.83
2018-01-23T01:06:01.472Z,88.76
2018-01-23T01:07:01.711Z,88.74
2018-01-23T01:08:01.957Z,88.77
2018-01-23T01:09:01.830Z,88.69
2018-01-23T01:10:01.639Z,88.67
2018-01-23T01:11:00.904Z,88.76
2018-01-23T01:12:02.932Z,88.55
2018-01-23T01:13:01.694Z,88.49
2018-01-23T01:14:01.481Z,88.49
2018-01-23T01:15:02.082Z,88.67
2018-01-23T01:16:02.469Z,88.66
2018-01-23T01:17:01.032Z,88.45
2018-01-23T01:18:01.260Z,88.34
2018-01-23T01:19:02.571Z,88.29
2018-01-23T01:20:01.432Z,88.08
2018-01-23T01:21:00.945Z,88.29
2018-01-23T01:22:01.514Z,88.32
2018-01-23T01:23:00.921Z,88.5
2018-01-23T01:24:00.982Z,88.47
2018-01-23T01:25:01.032Z,88.1
2018-01-23T01:26:00.900Z,87.99
2018-01-23T01:27:01.723Z,88.19
2018-01-23T01:28:02.367Z,88.06
2018-01-23T01:29:02.036Z,88.16
2018-01-23T01:30:01.785Z,88.23
2018-01-23T01:31:02.270Z,88.28
2018-01-23T01:32:03.185Z,88.35
2018-01-23T01:33:02.579Z,88.29
2018-01-23T01:34:02.964Z,88.55
2018-01-23T01:35:00.982Z,88.73
2018-01-23T01:36:01.832Z,88.81
2018-01-23T01:37:01.756Z,88.76
2018-01-23T01:38:01.108Z,88.67
2018-01-23T01:39:01.047Z,88.74
2018-01-23T01:40:01.167Z,88.89
2018-01-23T01:41:01.526Z,88.85
2018-01-23T01:42:03.235Z,89.03
2018-01-23T01:43:01.180Z,88.96
2018-01-23T01:44:01.027Z,88.78
2018-01-23T01:45:01.385Z,88.87
2018-01-23T01:46:02.886Z,88.73
2018-01-23T01:47:01.210Z,88.5
2018-01-23T01:48:02.017Z,88.68
2018-01-23T01:49:01.439Z,88.6
2018-01-23T01:50:05.067Z,88.3
2018-01-23T01:51:01.033Z,88.56
2018-01-23T01:52:02.258Z,88.61
2018-01-23T01:53:01.016Z,88.22
2018-01-23T01:54:01.183Z,88.4
2018-01-23T01:55:02.013Z,88.5
2018-01-23T01:56:01.037Z,88.57
2018-01-23T01:57:01.711Z,88.52
2018-01-23T01:58:01.213Z,88.49
2018-01-23T01:59:01.699Z,88.53
2018-01-23T02:00:02.149Z,88.56
2018-01-23T02:01:03.773Z,88.54
2018-01-23T02:02:01.922Z,88.45
2018-01-23T02:03:02.454Z,88.17
2018-01-23T02:04:01.543Z,88.3
2018-01-23T02:05:00.860Z,88.47
2018-01-23T02:06:00.995Z,88.44
2018-01-23T02:07:01.157Z,88.39
2018-01-23T02:08:00.918Z,88.41
2018-01-23T02:09:02.099Z,88.56
2018-01-23T02:10:01.182Z,88.32
2018-01-23T02:11:01.710Z,88.47
2018-01-23T02:12:02.459Z,88.42
2018-01-23T02:13:01.065Z,88.42
2018-01-23T02:14:00.933Z,88.46
2018-01-23T02:15:01.065Z,88.27
2018-01-23T02:16:03.267Z,88.17
2018-01-23T02:17:01.100Z,88.36
2018-01-23T02:18:02.081Z,88.45
2018-01-23T02:19:04.262Z,88.5
2018-01-23T02:20:01.185Z,88.6
2018-01-23T02:21:01.313Z,88.73
2018-01-23T02:22:00.845Z,88.73
2018-01-23T02:23:01.598Z,88.75
2018-01-23T02:24:00.822Z,88.82
2018-01-23T02:25:01.776Z,88.78
2018-01-23T02:26:01.861Z,89
2018-01-23T02:27:02.232Z,88.85
2018-01-23T02:28:03.355Z,88.77
2018-01-23T02:29:01.099Z,88.96
2018-01-23T02:30:01.138Z,88.82
2018-01-23T02:31:01.377Z,88.96
2018-01-23T02:32:01.273Z,88.79
2018-01-23T02:33:00.826Z,88.76
2018-01-23T02:34:01.509Z,88.55
2018-01-23T02:35:01.146Z,88.34
2018-01-23T02:36:01.173Z,88.54
2018-01-23T02:37:01.660Z,88.77
2018-01-23T02:38:01.984Z,88.6
2018-01-23T02:39:02.691Z,88.8
2018-01-23T02:40:02.436Z,88.96
2018-01-23T02:41:01.233Z,89.12
2018-01-23T02:42:01.152Z,89.27
2018-01-23T02:43:04.672Z,89.23
2018-01-23T02:44:01.908Z,89.32
2018-01-23T02:45:01.955Z,89.43
2018-01-23T02:46:01.023Z,89.49
2018-01-23T02:47:01.002Z,89.56
2018-01-23T02:48:03.566Z,89.68
2018-01-23T02:49:01.807Z,89.75
2018-01-23T02:50:01.648Z,89.74
2018-01-23T02:51:01.298Z,89.77
2018-01-23T02:52:03.141Z,89.83
2018-01-23T02:53:02.729Z,89.8
2018-01-23T02:54:01.058Z,89.74
2018-01-23T02:55:01.303Z,89.71
2018-01-23T02:56:02.161Z,89.54
2018-01-23T02:57:01.217Z,89.5
2018-01-23T02:58:01.723Z,89.66
2018-01-23T02:59:02.293Z,89.64
2018-01-23T03:00:03.734Z,89.42
2018-01-23T03:01:02.249Z,89.36
2018-01-23T03:02:01.210Z,89.38
2018-01-23T03:03:01.093Z,89.37
2018-01-23T03:04:02.446Z,89.11
2018-01-23T03:05:01.208Z,89.19
2018-01-23T03:06:01.282Z,89.36
2018-01-23T03:07:01.052Z,89.3
2018-01-23T03:08:01.254Z,89.29
2018-01-23T03:09:00.986Z,89.47
2018-01-23T03:10:02.871Z,89.56
2018-01-23T03:11:01.123Z,89.68
2018-01-23T03:12:01.724Z,89.4
2018-01-23T03:13:07.359Z,89.57
2018-01-23T03:14:02.533Z,89.57
2018-01-23T03:15:02.054Z,89.49
2018-01-23T03:16:03.122Z,89.29
2018-01-23T03:17:02.455Z,89.31
2018-01-23T03:18:02.134Z,89.24
2018-01-23T03:19:01.968Z,89.3
2018-01-23T03:20:01.279Z,89.21
2018-01-23T03:21:01.104Z,89.29
2018-01-23T03:22:00.883Z,89.38
2018-01-23T03:23:03.384Z,89.2
2018-01-23T03:24:01.228Z,89.15
2018-01-23T03:25:01.078Z,89.24
2018-01-23T03:26:01.491Z,89.3
2018-01-23T03:27:01.083Z,89.18
2018-01-23T03:28:02.231Z,89.26
2018-01-23T03:29:01.187Z,88.87
2018-01-23T03:30:01.679Z,88.84
2018-01-23T03:31:01.377Z,89.05
2018-01-23T03:32:02.578Z,89.04
2018-01-23T03:33:01.812Z,89.07
2018-01-23T03:34:02.207Z,89.23
2018-01-23T03:35:03.419Z,89.1
2018-01-23T03:36:01.254Z,88.4
2018-01-23T03:37:02.368Z,88.41
2018-01-23T03:38:01.300Z,88.36
2018-01-23T03:39:03.380Z,88.61
2018-01-23T03:40:03.218Z,88.73
2018-01-23T03:41:02.255Z,88.61
2018-01-23T03:42:02.927Z,88.51
2018-01-23T03:43:03.919Z,88.71
2018-01-23T03:44:04.667Z,88.64
2018-01-23T03:45:01.686Z,88.81
2018-01-23T03:46:02.055Z,88.45
2018-01-23T03:47:01.617Z,88.36
2018-01-23T03:48:01.893Z,88.57
2018-01-23T03:49:01.273Z,88.34
2018-01-23T03:50:01.964Z,88.5
2018-01-23T03:51:01.130Z,88.62
2018-01-23T03:52:01.317Z,88.33
2018-01-23T03:53:01.427Z,88.06
2018-01-23T03:54:02.782Z,88.06
2018-01-23T03:55:01.586Z,87.92
2018-01-23T03:56:01.139Z,87.79
2018-01-23T03:57:01.248Z,88.11
2018-01-23T03:58:02.164Z,88.06
2018-01-23T03:59:01.906Z,88.35
2018-01-23T04:00:01.960Z,87.87
2018-01-23T04:01:01.572Z,88.02
2018-01-23T04:02:02.173Z,87.92
2018-01-23T04:03:00.791Z,88.13
2018-01-23T04:04:01.490Z,88.17
2018-01-23T04:05:03.198Z,88.34
2018-01-23T04:06:03.055Z,88.09
2018-01-23T04:07:02.637Z,87.66
2018-01-23T04:08:01.263Z,87.5
2018-01-23T04:09:02.342Z,87.64
2018-01-23T04:10:02.561Z,87.85
2018-01-23T04:11:01.246Z,87.7
2018-01-23T04:12:02.134Z,87.67
2018-01-23T04:13:01.350Z,87.69
2018-01-23T04:14:01.300Z,87.64
2018-01-23T04:15:03.795Z,87.78
2018-01-23T04:16:03.409Z,87.56
2018-01-23T04:17:01.366Z,87.72
2018-01-23T04:18:02.266Z,87.92
2018-01-23T04:19:02.546Z,87.8
2018-01-23T04:20:01.312Z,87.68
2018-01-23T04:21:01.378Z,87.84
2018-01-23T04:22:02.385Z,87.52
2018-01-23T04:23:02.771Z,87.22
2018-01-23T04:24:01.490Z,87.62
2018-01-23T04:25:01.726Z,87.58
2018-01-23T04:26:02.572Z,87.16
2018-01-23T04:27:01.301Z,87.3
2018-01-23T04:28:02.404Z,87.43
2018-01-23T04:29:02.688Z,87.45
2018-01-23T04:30:02.527Z,87.39
2018-01-23T04:31:01.886Z,87.39
2018-01-23T04:32:01.927Z,86.62
2018-01-23T04:33:01.556Z,87.06
2018-01-23T04:34:01.306Z,86.8
2018-01-23T04:35:01.937Z,86.99
2018-01-23T04:36:02.649Z,87.08
2018-01-23T04:37:01.983Z,86.84
2018-01-23T04:38:02.505Z,86.93
2018-01-23T04:39:03.029Z,86.59
2018-01-23T04:40:01.103Z,86.56
2018-01-23T04:41:01.353Z,86.72
2018-01-23T04:42:01.277Z,86.78
2018-01-23T04:43:02.272Z,86.87
2018-01-23T04:44:02.620Z,87.07
2018-01-23T04:45:01.752Z,86.74
2018-01-23T04:46:01.937Z,86.8
2018-01-23T04:47:01.931Z,86.8
2018-01-23T04:48:02.219Z,87.09
2018-01-23T04:49:01.362Z,86.87
2018-01-23T04:50:01.458Z,86.93
2018-01-23T04:51:01.999Z,87.05
2018-01-23T04:52:01.117Z,87.25
2018-01-23T04:53:02.358Z,86.51
2018-01-23T04:54:02.206Z,86.62
2018-01-23T04:55:01.414Z,86.7
2018-01-23T04:56:02.105Z,86.83
2018-01-23T04:57:01.515Z,86.44
2018-01-23T04:58:01.400Z,86.65
2018-01-23T04:59:01.987Z,86.67
2018-01-23T05:00:03.344Z,86.74
2018-01-23T05:01:01.526Z,86.47
2018-01-23T05:02:02.097Z,86.73
2018-01-23T05:03:01.314Z,86
2018-01-23T05:04:01.192Z,85.95
2018-01-23T05:05:01.618Z,86.42
2018-01-23T05:06:01.304Z,86.34
2018-01-23T05:07:01.949Z,86.37
2018-01-23T05:08:01.301Z,86.63
2018-01-23T05:09:03.131Z,86.61
2018-01-23T05:10:01.344Z,86.49
2018-01-23T05:11:01.930Z,86.24
2018-01-23T05:12:02.307Z,86.22
2018-01-23T05:13:01.996Z,86.08
2018-01-23T05:14:03.202Z,86.36
2018-01-23T05:15:01.700Z,86.16
2018-01-23T05:16:01.592Z,86.07
2018-01-23T05:17:02.400Z,86.12
2018-01-23T05:18:02.744Z,85.56
2018-01-23T05:19:02.990Z,85.78
2018-01-23T05:20:03.932Z,85.58
2018-01-23T05:21:01.257Z,85.54
2018-01-23T05:22:02.667Z,85.7
2018-01-23T05:23:02.906Z,85.43
2018-01-23T05:24:01.265Z,85.34
2018-01-23T05:25:01.491Z,85.64
2018-01-23T05:26:01.955Z,85.75
2018-01-23T05:27:02.563Z,85.93
2018-01-23T05:28:02.171Z,85.96
2018-01-23T05:29:01.768Z,85.87
2018-01-23T05:30:02.931Z,86.05
2018-01-23T05:31:04.167Z,85.86
2018-01-23T05:32:01.196Z,86.39
2018-01-23T05:33:02.482Z,86.44
2018-01-23T05:34:02.409Z,85.96
2018-01-23T05:35:01.449Z,86.04
2018-01-23T05:36:02.750Z,86.21
2018-01-23T05:37:01.518Z,86.56
2018-01-23T05:38:01.348Z,86.69
2018-01-23T05:39:01.394Z,86.57
2018-01-23T05:40:02.330Z,86.43
2018-01-23T05:41:03.053Z,86.5
2018-01-23T05:42:01.258Z,85.74
2018-01-23T05:43:01.661Z,86.36
2018-01-23T05:44:01.493Z,86.66
2018-01-23T05:45:01.655Z,86.83
2018-01-23T05:46:01.915Z,86.82
2018-01-23T05:47:02.189Z,86.95
2018-01-23T05:48:01.286Z,86.78
2018-01-23T05:49:01.262Z,86.92
2018-01-23T05:50:02.454Z,86.73
2018-01-23T05:51:02.112Z,87.03
2018-01-23T05:52:01.212Z,87.12
2018-01-23T05:53:02.346Z,87.25
2018-01-23T05:54:01.504Z,87.05
2018-01-23T05:55:01.361Z,87.1
2018-01-23T05:56:01.389Z,87.19
2018-01-23T05:57:01.580Z,87.22
2018-01-23T05:58:01.636Z,87.29
2018-01-23T05:59:01.542Z,87.46
2018-01-23T06:00:02.937Z,87.37
2018-01-23T06:01:01.521Z,87.52
2018-01-23T06:02:01.368Z,87.66
2018-01-23T06:03:01.463Z,87.53
2018-01-23T06:04:02.676Z,87.71
2018-01-23T06:05:02.264Z,87.84
2018-01-23T06:06:01.238Z,87.83
2018-01-23T06:07:01.855Z,87.92
2018-01-23T06:08:01.772Z,87.89
2018-01-23T06:09:01.309Z,87.89
2018-01-23T06:10:02.308Z,87.88
2018-01-23T06:11:01.375Z,87.91
2018-01-23T06:12:01.621Z,87.88
2018-01-23T06:13:02.257Z,87.85
2018-01-23T06:14:01.552Z,88
2018-01-23T06:15:01.513Z,88.01
2018-01-23T06:16:03.260Z,87.81
2018-01-23T06:17:02.350Z,87.91
2018-01-23T06:18:01.423Z,88.29
2018-01-23T06:19:01.664Z,88.51
2018-01-23T06:20:02.966Z,88.59
2018-01-23T06:21:06.506Z,88.52
2018-01-23T06:22:01.639Z,88.48
2018-01-23T06:23:02.681Z,88.55
2018-01-23T06:24:01.783Z,88.62
2018-01-23T06:25:02.707Z,88.52
2018-01-23T06:26:02.416Z,88.68
2018-01-23T06:27:03.782Z,88.68
2018-01-23T06:28:02.604Z,88.72
2018-01-23T06:29:01.977Z,88.77
2018-01-23T06:30:02.632Z,88.83
2018-01-23T06:31:01.482Z,88.77
2018-01-23T06:32:01.707Z,88.78
2018-01-23T06:33:02.280Z,88.69
2018-01-23T06:34:01.632Z,88.73
2018-01-23T06:35:02.964Z,88.68
2018-01-23T06:36:01.463Z,88.73
2018-01-23T06:37:02.121Z,88.83
2018-01-23T06:38:03.480Z,88.91
2018-01-23T06:39:01.621Z,88.95
2018-01-23T06:40:02.844Z,89.08
2018-01-23T06:41:02.692Z,89.06
2018-01-23T06:42:02.902Z,88.89
2018-01-23T06:43:01.561Z,88.91
2018-01-23T06:44:02.212Z,88.94
2018-01-23T06:45:02.197Z,88.95
2018-01-23T06:46:01.634Z,89.11
2018-01-23T06:47:02.341Z,89.11
2018-01-23T06:48:03.165Z,89
2018-01-23T06:49:02.875Z,89.06
2018-01-23T06:50:02.552Z,89.09
2018-01-23T06:51:02.445Z,89.06
2018-01-23T06:52:01.624Z,89.17
2018-01-23T06:53:02.961Z,89.23
2018-01-23T06:54:04.093Z,89.27
2018-01-23T06:55:02.107Z,89.25
2018-01-23T06:56:02.339Z,89.24
2018-01-23T06:57:02.016Z,89.33
2018-01-23T06:58:01.515Z,89.34
2018-01-23T06:59:02.833Z,89.35
2018-01-23T07:00:02.156Z,89.46
2018-01-23T07:01:01.408Z,89.47
2018-01-23T07:02:02.958Z,89.54
2018-01-23T07:03:01.274Z,89.44
2018-01-23T07:04:02.610Z,89.52
2018-01-23T07:05:02.384Z,89.54
2018-01-23T07:06:01.480Z,89.59
2018-01-23T07:07:01.593Z,89.63
2018-01-23T07:08:02.192Z,89.55
2018-01-23T07:09:03.355Z,89.54
2018-01-23T07:10:03.600Z,89.55
2018-01-23T07:11:02.713Z,89.54
2018-01-23T07:12:01.989Z,89.57
2018-01-23T07:13:01.482Z,89.54
2018-01-23T07:14:01.796Z,89.7
2018-01-23T07:15:01.526Z,89.65
2018-01-23T07:16:03.407Z,89.75
2018-01-23T07:17:01.352Z,89.83
2018-01-23T07:18:01.573Z,89.88
2018-01-23T07:19:02.057Z,89.9
2018-01-23T07:20:02.098Z,89.79
2018-01-23T07:21:01.466Z,89.87
2018-01-23T07:22:01.403Z,89.9
2018-01-23T07:23:05.224Z,89.95
2018-01-23T07:24:02.877Z,89.98
2018-01-23T07:25:01.798Z,89.98
2018-01-23T07:26:02.689Z,90.06
2018-01-23T07:27:01.451Z,90.14
2018-01-23T07:28:02.362Z,90.08
2018-01-23T07:29:02.159Z,90.23
2018-01-23T07:30:04.613Z,90.33
2018-01-23T07:31:02.172Z,90.38
2018-01-23T07:32:05.021Z,90.22
2018-01-23T07:33:01.326Z,90.29
2018-01-23T07:34:01.349Z,90.44
2018-01-23T07:35:01.561Z,90.45
2018-01-23T07:36:01.537Z,90.46
2018-01-23T07:37:01.940Z,90.44
2018-01-23T07:38:00.835Z,90.61
2018-01-23T07:39:00.854Z,90.54
2018-01-23T07:40:00.990Z,90.58
2018-01-23T07:41:00.867Z,90.61
2018-01-23T07:42:01.093Z,90.58
2018-01-23T07:43:00.846Z,90.72
2018-01-23T07:44:00.888Z,90.69
2018-01-23T07:45:00.779Z,90.84
2018-01-23T07:46:01.402Z,90.7
2018-01-23T07:47:01.039Z,90.94
2018-01-23T07:48:00.904Z,90.84
2018-01-23T07:49:00.833Z,90.96
2018-01-23T07:50:00.901Z,91.06
2018-01-23T07:51:00.979Z,90.86
2018-01-23T07:52:00.846Z,90.98
2018-01-23T07:53:00.955Z,90.79
2018-01-23T07:54:00.864Z,90.83
2018-01-23T07:55:00.938Z,90.81
2018-01-23T07:56:00.898Z,90.73
2018-01-23T07:57:00.926Z,90.93
2018-01-23T07:58:00.973Z,90.88
2018-01-23T07:59:00.863Z,91.04
2018-01-23T08:00:00.861Z,91.12
2018-01-23T08:01:00.992Z,91.06
2018-01-23T08:02:00.957Z,91.07
2018-01-23T08:03:02.238Z,91.01
2018-01-23T08:04:00.847Z,91.16
2018-01-23T08:05:00.880Z,91.24
2018-01-23T08:06:00.974Z,91.25
2018-01-23T08:07:01.034Z,91.24
2018-01-23T08:08:01.190Z,91.09
2018-01-23T08:09:01.007Z,91.31
2018-01-23T08:10:01.004Z,91.55
2018-01-23T08:11:01.516Z,91.58
2018-01-23T08:12:01.042Z,91.54
2018-01-23T08:13:01.220Z,91.56
2018-01-23T08:14:00.996Z,91.64
2018-01-23T08:15:01.000Z,91.44
2018-01-23T08:16:00.862Z,91.44
2018-01-23T08:17:01.047Z,91.41
2018-01-23T08:18:01.130Z,91.43
2018-01-23T08:19:00.892Z,91.36
2018-01-23T08:20:01.009Z,91.45
2018-01-23T08:21:01.002Z,91.58
2018-01-23T08:22:00.935Z,91.51
2018-01-23T08:23:01.042Z,91.53
2018-01-23T08:24:00.972Z,91.53
2018-01-23T08:25:01.202Z,91.47
2018-01-23T08:26:01.089Z,91.49
2018-01-23T08:27:00.969Z,91.54
2018-01-23T08:28:01.022Z,91.51
2018-01-23T08:29:01.802Z,91.45
2018-01-23T08:30:05.962Z,91.64
2018-01-23T08:31:03.672Z,91.47
2018-01-23T08:32:02.173Z,91.48
2018-01-23T08:33:01.228Z,91.33
2018-01-23T08:34:01.668Z,91.45
2018-01-23T08:35:02.486Z,91.42
2018-01-23T08:36:00.910Z,91.52
2018-01-23T08:37:01.594Z,91.27
2018-01-23T08:38:02.373Z,91.29
2018-01-23T08:39:02.558Z,91.2
2018-01-23T08:40:02.732Z,91.38
2018-01-23T08:41:01.153Z,91.31
2018-01-23T08:42:01.099Z,91.31
2018-01-23T08:43:00.912Z,91.28
2018-01-23T08:44:01.307Z,91.52
2018-01-23T08:45:01.073Z,91.43
2018-01-23T08:46:01.044Z,91.33
2018-01-23T08:47:01.111Z,91.51
2018-01-23T08:48:01.204Z,91.31
2018-01-23T08:49:01.049Z,91.32
2018-01-23T08:50:01.104Z,91.19
2018-01-23T08:51:01.172Z,91.19
2018-01-23T08:52:01.068Z,91.28
2018-01-23T08:53:01.602Z,91.4
2018-01-23T08:54:01.256Z,91.12
2018-01-23T08:55:00.926Z,91.17
2018-01-23T08:56:01.170Z,91.2
2018-01-23T08:57:01.119Z,91.36
2018-01-23T08:58:01.050Z,91.27
2018-01-23T08:59:01.106Z,91.28
2018-01-23T09:00:01.075Z,91.15
2018-01-23T09:01:01.115Z,91.06
2018-01-23T09:02:01.211Z,90.99
2018-01-23T09:03:01.070Z,90.99
2018-01-23T09:04:01.090Z,91.08
2018-01-23T09:05:01.067Z,91.03
2018-01-23T09:06:01.145Z,91.31
2018-01-23T09:07:01.007Z,91.25
2018-01-23T09:08:01.151Z,91.2
2018-01-23T09:09:01.110Z,91.24
2018-01-23T09:10:01.077Z,91.2
2018-01-23T09:11:01.206Z,91.24
2018-01-23T09:12:01.023Z,91.16
2018-01-23T09:13:01.130Z,91.2
2018-01-23T09:14:01.130Z,91.01
2018-01-23T09:15:01.199Z,90.98
2018-01-23T09:16:00.962Z,91.25
2018-01-23T09:17:01.152Z,91.23
2018-01-23T09:18:01.123Z,91.43
2018-01-23T09:19:01.532Z,91.32
2018-01-23T09:20:01.287Z,91.39
2018-01-23T09:21:01.014Z,91.27
2018-01-23T09:22:01.070Z,91.38
2018-01-23T09:23:01.050Z,91.38
2018-01-23T09:24:02.086Z,91.73
2018-01-23T09:25:01.139Z,91.81
2018-01-23T09:26:01.086Z,92.01
2018-01-23T09:27:01.118Z,91.84
2018-01-23T09:28:01.088Z,91.96
2018-01-23T09:29:01.080Z,92.31
2018-01-23T09:30:01.111Z,92.09
2018-01-23T09:31:01.197Z,92.05
2018-01-23T09:32:01.159Z,92.16
2018-01-23T09:33:01.720Z,92.02
2018-01-23T09:34:01.096Z,92.16
2018-01-23T09:35:01.068Z,92.23
2018-01-23T09:36:01.154Z,92.12
2018-01-23T09:37:01.140Z,92.17
2018-01-23T09:38:01.204Z,92.29
2018-01-23T09:39:01.239Z,92.2
2018-01-23T09:40:01.203Z,92.15
2018-01-23T09:41:01.314Z,92.25
2018-01-23T09:42:01.182Z,92.34
2018-01-23T09:43:01.162Z,92.32
2018-01-23T09:44:01.184Z,92.38
2018-01-23T09:45:01.294Z,92.95
2018-01-23T09:46:01.197Z,92.74
2018-01-23T09:47:01.056Z,92.82
2018-01-23T09:48:01.127Z,92.72
2018-01-23T09:49:01.606Z,92.69
2018-01-23T09:50:01.154Z,92.74
2018-01-23T09:51:01.241Z,92.39
2018-01-23T09:52:01.539Z,92.49
2018-01-23T09:53:01.782Z,92.66
2018-01-23T09:54:00.988Z,92.41
2018-01-23T09:55:01.050Z,92.56
2018-01-23T09:56:01.228Z,92.53
2018-01-23T09:57:01.643Z,92.29
2018-01-23T09:58:01.178Z,92.34
2018-01-23T09:59:01.198Z,92.04
2018-01-23T10:00:01.282Z,92.27
2018-01-23T10:01:01.068Z,92.32
2018-01-23T10:02:01.201Z,92.29
2018-01-23T10:03:01.389Z,92.37
2018-01-23T10:04:01.216Z,92.12
2018-01-23T10:05:01.198Z,91.8
2018-01-23T10:06:01.244Z,91.87
2018-01-23T10:07:01.240Z,91.97
2018-01-23T10:08:01.338Z,91.64
2018-01-23T10:09:01.471Z,91.66
2018-01-23T10:10:01.204Z,91.34
2018-01-23T10:11:01.159Z,91.83
2018-01-23T10:12:01.324Z,91.92
2018-01-23T10:13:01.263Z,91.74
2018-01-23T10:14:01.265Z,91.71
2018-01-23T10:15:01.242Z,91.63
2018-01-23T10:16:01.312Z,91.01
2018-01-23T10:17:01.208Z,91.34
2018-01-23T10:18:01.289Z,91.44
2018-01-23T10:19:01.204Z,91.58
2018-01-23T10:20:01.259Z,91.67
2018-01-23T10:21:01.660Z,91.58
2018-01-23T10:22:01.235Z,91.28
2018-01-23T10:23:01.312Z,91.38
2018-01-23T10:24:01.265Z,91.36
2018-01-23T10:25:01.254Z,91.43
2018-01-23T10:26:01.265Z,91.19
2018-01-23T10:27:01.298Z,91.12
2018-01-23T10:28:01.275Z,91.31
2018-01-23T10:29:01.259Z,91.3
2018-01-23T10:30:01.214Z,91.58
2018-01-23T10:31:01.374Z,91.08
2018-01-23T10:32:01.191Z,91.25
2018-01-23T10:33:01.225Z,91.41
2018-01-23T10:34:01.270Z,91.12
2018-01-23T10:35:01.381Z,90.57
2018-01-23T10:36:01.000Z,90.58
2018-01-23T10:37:01.256Z,90.47
2018-01-23T10:38:01.475Z,90.76
2018-01-23T10:39:01.185Z,90.9
2018-01-23T10:40:01.249Z,90.59
2018-01-23T10:41:01.715Z,90.27
2018-01-23T10:42:01.245Z,90.48
2018-01-23T10:43:01.366Z,90.28
2018-01-23T10:44:01.410Z,89.92
2018-01-23T10:45:01.418Z,90.1
2018-01-23T10:46:01.315Z,90.47
2018-01-23T10:47:01.266Z,90.32
2018-01-23T10:48:01.356Z,90.14
2018-01-23T10:49:01.510Z,90.21
2018-01-23T10:50:01.382Z,90.14
2018-01-23T10:51:01.277Z,90.16
2018-01-23T10:52:01.282Z,90.07
2018-01-23T10:53:01.269Z,90.32
2018-01-23T10:54:01.375Z,89.85
2018-01-23T10:55:01.282Z,89.99
2018-01-23T10:56:01.371Z,90.07
2018-01-23T10:57:01.119Z,90.12
2018-01-23T10:58:01.211Z,89.76
2018-01-23T10:59:01.386Z,89.72
2018-01-23T11:00:01.364Z,89.93
2018-01-23T11:01:01.338Z,89.98
2018-01-23T11:02:01.356Z,89.22
2018-01-23T11:03:01.311Z,89.38
2018-01-23T11:04:01.328Z,89.67
2018-01-23T11:05:01.285Z,88.98
2018-01-23T11:06:01.489Z,89
2018-01-23T11:07:01.488Z,89.19
2018-01-23T11:08:01.458Z,88.85
2018-01-23T11:09:01.546Z,89.32
2018-01-23T11:10:01.520Z,89.13
2018-01-23T11:11:01.426Z,88.95
2018-01-23T11:12:01.401Z,89.25
2018-01-23T11:13:01.454Z,89.18
2018-01-23T11:14:01.479Z,89
2018-01-23T11:15:01.456Z,88.87
2018-01-23T11:16:01.456Z,88.75
2018-01-23T11:17:01.395Z,88.73
2018-01-23T11:18:01.668Z,88.99
2018-01-23T11:19:01.574Z,89.33
2018-01-23T11:20:01.466Z,89.21
2018-01-23T11:21:01.420Z,88.98
2018-01-23T11:22:01.621Z,89.09
2018-01-23T11:23:02.136Z,88.99
2018-01-23T11:24:01.596Z,89.09
2018-01-23T11:25:01.384Z,88.94
2018-01-23T11:26:01.402Z,88.37
2018-01-23T11:27:01.314Z,88.67
2018-01-23T11:28:01.458Z,88.75
2018-01-23T11:29:01.638Z,88.84
2018-01-23T11:30:01.480Z,88.89
2018-01-23T11:31:01.437Z,88.94
2018-01-23T11:32:01.613Z,89.11
2018-01-23T11:33:01.426Z,89.21
2018-01-23T11:34:01.554Z,88.69
2018-01-23T11:35:01.520Z,88.89
2018-01-23T11:36:01.432Z,89.07
2018-01-23T11:37:01.413Z,88.18
2018-01-23T11:38:01.371Z,87.9
2018-01-23T11:39:01.553Z,87.45
2018-01-23T11:40:01.782Z,87.7
2018-01-23T11:41:01.533Z,87.85
2018-01-23T11:42:01.465Z,87.19
2018-01-23T11:43:01.531Z,87.52
2018-01-23T11:44:01.420Z,87.74
2018-01-23T11:45:01.536Z,87.82
2018-01-23T11:46:01.657Z,88.08
2018-01-23T11:47:01.483Z,87.68
2018-01-23T11:48:01.465Z,87.93
2018-01-23T11:49:01.444Z,87.59
2018-01-23T11:50:01.766Z,87.59
2018-01-23T11:51:01.510Z,87.09
2018-01-23T11:52:01.632Z,86.87
2018-01-23T11:53:01.552Z,87.24
2018-01-23T11:54:01.815Z,87.26
2018-01-23T11:55:01.628Z,87.18
2018-01-23T11:56:01.855Z,87.05
2018-01-23T11:57:01.556Z,86.96
2018-01-23T11:58:01.467Z,86.8
2018-01-23T11:59:01.411Z,87.13
2018-01-23T12:00:01.551Z,87
2018-01-23T12:01:01.593Z,87.17
2018-01-23T12:02:01.541Z,87.14
2018-01-23T12:03:01.630Z,87.42
2018-01-23T12:04:01.418Z,86.96
2018-01-23T12:05:01.569Z,87.12
2018-01-23T12:06:01.677Z,87.38
2018-01-23T12:07:01.509Z,87.46
2018-01-23T12:08:01.484Z,86.62
2018-01-23T12:09:00.610Z,87
2018-01-23T12:10:00.604Z,87
2018-01-23T12:11:00.698Z,86.84
2018-01-23T12:12:00.562Z,86.99
2018-01-23T12:13:00.929Z,86.87
2018-01-23T12:14:00.691Z,86.89
2018-01-23T12:15:00.666Z,86.99
2018-01-23T12:16:00.526Z,87.02
2018-01-23T12:17:00.534Z,86.61
2018-01-23T12:18:00.649Z,86.87
2018-01-23T12:19:00.666Z,86.75
2018-01-23T12:20:00.486Z,86.33
2018-01-23T12:21:00.476Z,86.23
2018-01-23T12:22:00.498Z,86.34
2018-01-23T12:23:00.564Z,86.61
2018-01-23T12:24:01.654Z,85.83
2018-01-23T12:25:00.665Z,85.76
2018-01-23T12:26:00.520Z,85.35
2018-01-23T12:27:00.504Z,85.53
2018-01-23T12:28:00.530Z,85.46
2018-01-23T12:29:00.564Z,85.8
2018-01-23T12:30:00.547Z,85.74
2018-01-23T12:31:00.653Z,85.27
2018-01-23T12:32:00.485Z,85.68
2018-01-23T12:33:00.622Z,85.78
2018-01-23T12:34:00.805Z,86.16
2018-01-23T12:35:00.569Z,86.37
2018-01-23T12:36:00.713Z,86.57
2018-01-23T12:37:00.527Z,86.51
2018-01-23T12:38:00.500Z,86.41
2018-01-23T12:39:00.965Z,86.26
2018-01-23T12:40:00.778Z,85.69
2018-01-23T12:41:00.997Z,85.94
2018-01-23T12:42:00.995Z,86.1
2018-01-23T12:43:01.015Z,86.23
2018-01-23T12:44:00.989Z,85.47
2018-01-23T12:45:00.957Z,85.16
2018-01-23T12:46:00.952Z,85.24
2018-01-23T12:47:00.894Z,84.21
2018-01-23T12:48:00.865Z,85.13
2018-01-23T12:49:00.917Z,84.82
2018-01-23T12:50:00.731Z,84.95
2018-01-23T12:51:01.128Z,84.73
2018-01-23T12:52:01.119Z,84.9
2018-01-23T12:53:00.980Z,84.72
2018-01-23T12:54:00.947Z,84.63
2018-01-23T12:55:00.887Z,84.31